sensor_id;sensor_type;location;lat;lon;timestamp;pressure;altitude;pressure_sealevel;temperature;humidity
40574;BME280;26283;49.020;8.644;2023-03-18T00:00:38;98810.22;;;13.56;54.03
40574;BME280;26283;49.020;8.644;2023-03-18T00:03:03;98819.16;;;13.56;54.04
40574;BME280;26283;49.020;8.644;2023-03-18T00:05:29;98816.69;;;13.55;54.06
40574;BME280;26283;49.020;8.644;2023-03-18T00:07:55;98807.75;;;13.54;54.07
40574;BME280;26283;49.020;8.644;2023-03-18T00:10:21;98813.19;;;13.54;54.10
40574;BME280;26283;49.020;8.644;2023-03-18T00:12:46;98817.78;;;13.54;54.12
40574;BME280;26283;49.020;8.644;2023-03-18T00:15:14;98822.38;;;13.53;54.13
40574;BME280;26283;49.020;8.644;2023-03-18T00:17:40;98822.38;;;13.53;54.14
40574;BME280;26283;49.020;8.644;2023-03-18T00:20:07;98828.59;;;13.54;54.16
40574;BME280;26283;49.020;8.644;2023-03-18T00:22:34;98824.25;;;13.53;54.18
40574;BME280;26283;49.020;8.644;2023-03-18T00:25:00;98834.25;;;13.52;54.20
40574;BME280;26283;49.020;8.644;2023-03-18T00:27:26;98824.50;;;13.51;54.19
40574;BME280;26283;49.020;8.644;2023-03-18T00:29:52;98836.16;;;13.52;54.22
40574;BME280;26283;49.020;8.644;2023-03-18T00:32:18;98838.84;;;13.52;54.23
40574;BME280;26283;49.020;8.644;2023-03-18T00:34:43;98841.81;;;13.50;54.26
40574;BME280;26283;49.020;8.644;2023-03-18T00:37:09;98836.41;;;13.50;54.26
40574;BME280;26283;49.020;8.644;2023-03-18T00:39:43;98837.22;;;13.51;54.27
40574;BME280;26283;49.020;8.644;2023-03-18T00:42:10;98840.16;;;13.49;54.28
40574;BME280;26283;49.020;8.644;2023-03-18T00:44:36;98842.87;;;13.49;54.30
40574;BME280;26283;49.020;8.644;2023-03-18T00:47:03;98839.34;;;13.49;54.32
40574;BME280;26283;49.020;8.644;2023-03-18T00:49:29;98846.66;;;13.48;54.33
40574;BME280;26283;49.020;8.644;2023-03-18T00:51:54;98846.66;;;13.48;54.35
40574;BME280;26283;49.020;8.644;2023-03-18T00:54:20;98838.53;;;13.48;54.36
40574;BME280;26283;49.020;8.644;2023-03-18T00:56:46;98842.28;;;13.47;54.36
40574;BME280;26283;49.020;8.644;2023-03-18T00:59:12;98836.88;;;13.47;54.39
40574;BME280;26283;49.020;8.644;2023-03-18T01:01:38;98848.78;;;13.46;54.41
40574;BME280;26283;49.020;8.644;2023-03-18T01:04:04;98847.12;;;13.45;54.43
40574;BME280;26283;49.020;8.644;2023-03-18T01:06:32;98852.53;;;13.45;54.46
40574;BME280;26283;49.020;8.644;2023-03-18T01:08:58;98844.44;;;13.45;54.48
40574;BME280;26283;49.020;8.644;2023-03-18T01:11:25;98861.72;;;13.44;54.51
40574;BME280;26283;49.020;8.644;2023-03-18T01:13:51;98851.72;;;13.45;54.53
40574;BME280;26283;49.020;8.644;2023-03-18T01:16:18;98859.84;;;13.45;54.56
40574;BME280;26283;49.020;8.644;2023-03-18T01:18:43;98855.50;;;13.44;54.60
40574;BME280;26283;49.020;8.644;2023-03-18T01:21:10;98866.31;;;13.44;54.62
40574;BME280;26283;49.020;8.644;2023-03-18T01:23:36;98856.56;;;13.43;54.64
40574;BME280;26283;49.020;8.644;2023-03-18T01:26:02;98861.97;;;13.43;54.66
40574;BME280;26283;49.020;8.644;2023-03-18T01:28:28;98863.91;;;13.42;54.69
40574;BME280;26283;49.020;8.644;2023-03-18T01:30:54;98856.84;;;13.41;54.73
40574;BME280;26283;49.020;8.644;2023-03-18T01:33:20;98857.66;;;13.42;54.74
40574;BME280;26283;49.020;8.644;2023-03-18T01:35:52;98851.44;;;13.41;54.75
40574;BME280;26283;49.020;8.644;2023-03-18T01:38:18;98847.91;;;13.41;54.79
40574;BME280;26283;49.020;8.644;2023-03-18T01:40:44;98844.38;;;13.40;54.80
40574;BME280;26283;49.020;8.644;2023-03-18T01:45:35;98846.50;;;13.38;54.88
40574;BME280;26283;49.020;8.644;2023-03-18T01:48:00;98854.38;;;13.40;54.92
40574;BME280;26283;49.020;8.644;2023-03-18T01:50:30;98851.91;;;13.38;54.95
40574;BME280;26283;49.020;8.644;2023-03-18T01:53:01;98851.91;;;13.38;54.98
40574;BME280;26283;49.020;8.644;2023-03-18T01:55:29;98844.88;;;13.37;54.99
40574;BME280;26283;49.020;8.644;2023-03-18T01:57:56;98841.34;;;13.36;55.03
40574;BME280;26283;49.020;8.644;2023-03-18T02:00:22;98846.50;;;13.38;55.05
40574;BME280;26283;49.020;8.644;2023-03-18T02:02:50;98847.56;;;13.37;55.07
40574;BME280;26283;49.020;8.644;2023-03-18T02:05:19;98840.50;;;13.36;55.09
40574;BME280;26283;49.020;8.644;2023-03-18T02:07:45;98847.81;;;13.35;55.11
40574;BME280;26283;49.020;8.644;2023-03-18T02:10:16;98837.00;;;13.35;55.13
40574;BME280;26283;49.020;8.644;2023-03-18T02:12:46;98853.22;;;13.35;55.16
40574;BME280;26283;49.020;8.644;2023-03-18T02:15:15;98846.16;;;13.34;55.18
40574;BME280;26283;49.020;8.644;2023-03-18T02:17:51;98841.59;;;13.35;55.21
40574;BME280;26283;49.020;8.644;2023-03-18T02:22:53;98847.25;;;13.33;55.25
40574;BME280;26283;49.020;8.644;2023-03-18T02:25:41;98850.19;;;13.32;55.28
40574;BME280;26283;49.020;8.644;2023-03-18T02:28:12;98847.47;;;13.32;55.35
40574;BME280;26283;49.020;8.644;2023-03-18T02:30:41;98845.84;;;13.31;55.33
40574;BME280;26283;49.020;8.644;2023-03-18T02:33:08;98848.53;;;13.31;55.37
40574;BME280;26283;49.020;8.644;2023-03-18T02:35:35;98838.78;;;13.30;55.38
40574;BME280;26283;49.020;8.644;2023-03-18T02:38:01;98849.38;;;13.31;55.40
40574;BME280;26283;49.020;8.644;2023-03-18T02:40:33;98850.44;;;13.30;55.42
40574;BME280;26283;49.020;8.644;2023-03-18T02:43:22;98855.03;;;13.30;55.44
40574;BME280;26283;49.020;8.644;2023-03-18T02:48:29;98856.09;;;13.29;55.48
40574;BME280;26283;49.020;8.644;2023-03-18T02:50:57;98857.16;;;13.28;55.49
40574;BME280;26283;49.020;8.644;2023-03-18T02:53:23;98856.09;;;13.29;55.51
40574;BME280;26283;49.020;8.644;2023-03-18T02:55:49;98859.84;;;13.28;55.53
40574;BME280;26283;49.020;8.644;2023-03-18T02:58:14;98859.84;;;13.28;55.55
40574;BME280;26283;49.020;8.644;2023-03-18T03:00:39;98860.91;;;13.27;55.56
40574;BME280;26283;49.020;8.644;2023-03-18T03:03:05;98857.63;;;13.25;55.57
40574;BME280;26283;49.020;8.644;2023-03-18T03:05:32;98865.50;;;13.26;55.58
40574;BME280;26283;49.020;8.644;2023-03-18T03:07:58;98864.69;;;13.26;55.59
40574;BME280;26283;49.020;8.644;2023-03-18T03:10:23;98863.06;;;13.25;55.60
40574;BME280;26283;49.020;8.644;2023-03-18T03:12:49;98857.63;;;13.25;55.61
40574;BME280;26283;49.020;8.644;2023-03-18T03:15:15;98863.06;;;13.25;55.62
40574;BME280;26283;49.020;8.644;2023-03-18T03:17:40;98865.75;;;13.25;55.63
40574;BME280;26283;49.020;8.644;2023-03-18T03:20:07;98868.47;;;13.25;55.65
40574;BME280;26283;49.020;8.644;2023-03-18T03:22:33;98864.13;;;13.24;55.66
40574;BME280;26283;49.020;8.644;2023-03-18T03:24:59;98867.88;;;13.23;55.67
40574;BME280;26283;49.020;8.644;2023-03-18T03:27:26;98870.59;;;13.23;55.68
40574;BME280;26283;49.020;8.644;2023-03-18T03:29:51;98871.41;;;13.23;55.70
40574;BME280;26283;49.020;8.644;2023-03-18T03:32:18;98872.47;;;13.22;55.70
40574;BME280;26283;49.020;8.644;2023-03-18T03:34:43;98871.66;;;13.22;55.71
40574;BME280;26283;49.020;8.644;2023-03-18T03:37:09;98868.13;;;13.21;55.72
40574;BME280;26283;49.020;8.644;2023-03-18T03:39:34;98868.13;;;13.21;55.73
40574;BME280;26283;49.020;8.644;2023-03-18T03:41:59;98871.66;;;13.22;55.74
40574;BME280;26283;49.020;8.644;2023-03-18T03:44:25;98878.13;;;13.21;55.75
40574;BME280;26283;49.020;8.644;2023-03-18T03:46:50;98875.41;;;13.21;55.77
40574;BME280;26283;49.020;8.644;2023-03-18T03:49:16;98878.41;;;13.19;55.77
40574;BME280;26283;49.020;8.644;2023-03-18T03:51:43;98878.41;;;13.19;55.78
40574;BME280;26283;49.020;8.644;2023-03-18T03:54:10;98881.34;;;13.18;55.79
40574;BME280;26283;49.020;8.644;2023-03-18T03:56:37;98886.53;;;13.19;55.81
40574;BME280;26283;49.020;8.644;2023-03-18T03:59:03;98882.16;;;13.18;55.81
40574;BME280;26283;49.020;8.644;2023-03-18T04:01:29;98882.41;;;13.17;55.81
40574;BME280;26283;49.020;8.644;2023-03-18T04:03:54;98883.22;;;13.17;55.82
40574;BME280;26283;49.020;8.644;2023-03-18T04:06:20;98878.66;;;13.18;55.83
40574;BME280;26283;49.020;8.644;2023-03-18T04:08:46;98877.00;;;13.17;55.84
40574;BME280;26283;49.020;8.644;2023-03-18T04:11:11;98880.78;;;13.16;55.85
40574;BME280;26283;49.020;8.644;2023-03-18T04:13:36;98888.87;;;13.16;55.86
40574;BME280;26283;49.020;8.644;2023-03-18T04:16:02;98881.81;;;13.15;55.87
40574;BME280;26283;49.020;8.644;2023-03-18T04:18:27;98889.91;;;13.15;55.88
40574;BME280;26283;49.020;8.644;2023-03-18T04:20:52;98894.50;;;13.14;55.89
40574;BME280;26283;49.020;8.644;2023-03-18T04:23:18;98904.50;;;13.14;55.91
40574;BME280;26283;49.020;8.644;2023-03-18T04:25:43;98898.28;;;13.13;55.91
40574;BME280;26283;49.020;8.644;2023-03-18T04:28:09;98892.88;;;13.13;55.92
40574;BME280;26283;49.020;8.644;2023-03-18T04:30:34;98892.03;;;13.13;55.92
40574;BME280;26283;49.020;8.644;2023-03-18T04:33:00;98888.75;;;13.11;55.93
40574;BME280;26283;49.020;8.644;2023-03-18T04:35:26;98898.53;;;13.12;55.95
40574;BME280;26283;49.020;8.644;2023-03-18T04:37:52;98886.88;;;13.11;55.96
40574;BME280;26283;49.020;8.644;2023-03-18T04:40:18;98886.06;;;13.11;55.97
40574;BME280;26283;49.020;8.644;2023-03-18T04:42:44;98891.47;;;13.11;55.98
40574;BME280;26283;49.020;8.644;2023-03-18T04:45:13;98882.53;;;13.10;55.99
40574;BME280;26283;49.020;8.644;2023-03-18T04:47:39;98894.41;;;13.09;56.00
40574;BME280;26283;49.020;8.644;2023-03-18T04:50:06;98886.31;;;13.09;56.01
40574;BME280;26283;49.020;8.644;2023-03-18T04:52:34;98889.81;;;13.10;56.02
40574;BME280;26283;49.020;8.644;2023-03-18T04:55:00;98894.66;;;13.08;56.03
40574;BME280;26283;49.020;8.644;2023-03-18T04:57:25;98895.47;;;13.08;56.04
40574;BME280;26283;49.020;8.644;2023-03-18T04:59:52;98898.19;;;13.08;56.04
40574;BME280;26283;49.020;8.644;2023-03-18T05:02:18;98893.84;;;13.07;56.06
40574;BME280;26283;49.020;8.644;2023-03-18T05:04:44;98887.59;;;13.07;56.07
40574;BME280;26283;49.020;8.644;2023-03-18T05:07:12;98895.72;;;13.07;56.07
40574;BME280;26283;49.020;8.644;2023-03-18T05:09:39;98898.41;;;13.07;56.08
40574;BME280;26283;49.020;8.644;2023-03-18T05:12:09;98903.84;;;13.07;56.09
40574;BME280;26283;49.020;8.644;2023-03-18T05:14:35;98887.03;;;13.04;56.10
40574;BME280;26283;49.020;8.644;2023-03-18T05:17:01;98878.09;;;13.04;56.10
40574;BME280;26283;49.020;8.644;2023-03-18T05:19:28;98868.91;;;13.05;55.42
40574;BME280;26283;49.020;8.644;2023-03-18T05:21:53;98871.63;;;13.05;55.24
40574;BME280;26283;49.020;8.644;2023-03-18T05:24:20;98878.91;;;13.04;55.17
40574;BME280;26283;49.020;8.644;2023-03-18T05:26:45;98879.97;;;13.03;55.20
40574;BME280;26283;49.020;8.644;2023-03-18T05:29:11;98882.91;;;13.02;55.19
40574;BME280;26283;49.020;8.644;2023-03-18T05:31:37;98878.56;;;13.01;55.18
40574;BME280;26283;49.020;8.644;2023-03-18T05:34:02;98875.31;;;12.99;55.17
40574;BME280;26283;49.020;8.644;2023-03-18T05:36:28;98883.44;;;12.99;55.14
40574;BME280;26283;49.020;8.644;2023-03-18T05:38:54;98880.97;;;12.97;55.13
40574;BME280;26283;49.020;8.644;2023-03-18T05:41:19;98884.97;;;12.95;55.16
40574;BME280;26283;49.020;8.644;2023-03-18T05:43:44;98885.22;;;12.93;55.20
40574;BME280;26283;49.020;8.644;2023-03-18T05:46:10;98894.97;;;12.94;55.22
40574;BME280;26283;49.020;8.644;2023-03-18T05:48:36;98890.03;;;12.91;55.24
40574;BME280;26283;49.020;8.644;2023-03-18T05:51:02;98895.44;;;12.91;55.23
40574;BME280;26283;49.020;8.644;2023-03-18T05:53:28;98894.88;;;12.89;55.26
40574;BME280;26283;49.020;8.644;2023-03-18T05:55:54;98894.06;;;12.89;55.32
40574;BME280;26283;49.020;8.644;2023-03-18T05:58:20;98897.81;;;12.88;55.34
40574;BME280;26283;49.020;8.644;2023-03-18T06:00:46;98887.25;;;12.86;55.35
40574;BME280;26283;49.020;8.644;2023-03-18T06:03:11;98898.06;;;12.86;55.34
40574;BME280;26283;49.020;8.644;2023-03-18T06:05:36;98895.59;;;12.85;55.39
40574;BME280;26283;49.020;8.644;2023-03-18T06:08:02;98898.28;;;12.85;55.43
40574;BME280;26283;49.020;8.644;2023-03-18T06:10:27;98902.87;;;12.84;55.43
40574;BME280;26283;49.020;8.644;2023-03-18T06:12:53;98903.94;;;12.83;55.43
40574;BME280;26283;49.020;8.644;2023-03-18T06:15:19;98898.53;;;12.83;55.38
40574;BME280;26283;49.020;8.644;2023-03-18T06:17:45;98904.19;;;12.82;55.43
40574;BME280;26283;49.020;8.644;2023-03-18T06:20:11;98900.66;;;12.81;55.49
40574;BME280;26283;49.020;8.644;2023-03-18T06:22:38;98907.94;;;12.81;55.52
40574;BME280;26283;49.020;8.644;2023-03-18T06:25:04;98907.12;;;12.80;55.52
40574;BME280;26283;49.020;8.644;2023-03-18T06:27:32;98914.41;;;12.80;55.52
40574;BME280;26283;49.020;8.644;2023-03-18T06:29:58;98908.19;;;12.79;55.57
40574;BME280;26283;49.020;8.644;2023-03-18T06:32:27;98909.25;;;12.78;55.63
40574;BME280;26283;49.020;8.644;2023-03-18T06:34:54;98914.66;;;12.78;55.64
40574;BME280;26283;49.020;8.644;2023-03-18T06:37:19;98911.41;;;12.76;55.74
40574;BME280;26283;49.020;8.644;2023-03-18T06:39:45;98916.81;;;12.76;55.81
40574;BME280;26283;49.020;8.644;2023-03-18T06:42:11;98920.34;;;12.77;55.91
40574;BME280;26283;49.020;8.644;2023-03-18T06:44:36;98914.09;;;12.76;56.13
40574;BME280;26283;49.020;8.644;2023-03-18T06:47:04;98906.22;;;12.75;56.27
40574;BME280;26283;49.020;8.644;2023-03-18T06:49:29;98906.22;;;12.75;56.40
40574;BME280;26283;49.020;8.644;2023-03-18T06:51:54;98907.28;;;12.74;56.42
40574;BME280;26283;49.020;8.644;2023-03-18T06:54:20;98911.87;;;12.73;56.41
40574;BME280;26283;49.020;8.644;2023-03-18T06:56:46;98908.59;;;12.71;56.39
40574;BME280;26283;49.020;8.644;2023-03-18T06:59:11;98912.13;;;12.72;56.32
40574;BME280;26283;49.020;8.644;2023-03-18T07:01:36;98916.69;;;12.71;56.34
40574;BME280;26283;49.020;8.644;2023-03-18T07:04:02;98910.47;;;12.70;56.36
40574;BME280;26283;49.020;8.644;2023-03-18T07:06:31;98933.97;;;12.70;56.38
40574;BME280;26283;49.020;8.644;2023-03-18T07:08:56;98940.22;;;12.70;56.57
40574;BME280;26283;49.020;8.644;2023-03-18T07:11:23;98936.69;;;12.70;56.54
40574;BME280;26283;49.020;8.644;2023-03-18T07:13:49;98940.22;;;12.70;56.53
40574;BME280;26283;49.020;8.644;2023-03-18T07:16:15;98938.31;;;12.71;56.53
40574;BME280;26283;49.020;8.644;2023-03-18T07:18:41;98944.56;;;12.72;56.54
40574;BME280;26283;49.020;8.644;2023-03-18T07:21:07;98944.81;;;12.70;56.54
40574;BME280;26283;49.020;8.644;2023-03-18T07:23:34;98951.84;;;12.71;56.55
40574;BME280;26283;49.020;8.644;2023-03-18T07:25:59;98955.38;;;12.72;56.56
40574;BME280;26283;49.020;8.644;2023-03-18T07:28:24;98958.06;;;12.72;56.57
40574;BME280;26283;49.020;8.644;2023-03-18T07:30:50;98965.37;;;12.71;56.57
40574;BME280;26283;49.020;8.644;2023-03-18T07:33:15;98959.13;;;12.70;56.57
40574;BME280;26283;49.020;8.644;2023-03-18T07:35:41;98960.78;;;12.72;56.58
40574;BME280;26283;49.020;8.644;2023-03-18T07:38:08;98954.56;;;12.71;56.59
40574;BME280;26283;49.020;8.644;2023-03-18T07:40:34;98962.66;;;12.71;56.60
40574;BME280;26283;49.020;8.644;2023-03-18T07:43:00;98959.97;;;12.71;56.62
40574;BME280;26283;49.020;8.644;2023-03-18T07:45:26;98963.47;;;12.72;56.62
40574;BME280;26283;49.020;8.644;2023-03-18T07:47:53;98966.19;;;12.72;56.64
40574;BME280;26283;49.020;8.644;2023-03-18T07:50:18;98961.84;;;12.70;56.65
40574;BME280;26283;49.020;8.644;2023-03-18T07:52:44;98972.41;;;12.72;56.65
40574;BME280;26283;49.020;8.644;2023-03-18T07:55:10;98967.00;;;12.72;56.65
40574;BME280;26283;49.020;8.644;2023-03-18T07:57:36;98976.75;;;12.73;56.65
40574;BME280;26283;49.020;8.644;2023-03-18T08:00:03;98973.25;;;12.73;56.66
40574;BME280;26283;49.020;8.644;2023-03-18T08:02:29;98969.72;;;12.72;56.66
40574;BME280;26283;49.020;8.644;2023-03-18T08:04:54;98975.72;;;12.74;56.66
40574;BME280;26283;49.020;8.644;2023-03-18T08:07:20;98971.34;;;12.73;56.67
40574;BME280;26283;49.020;8.644;2023-03-18T08:09:47;98970.31;;;12.74;56.67
40574;BME280;26283;49.020;8.644;2023-03-18T08:12:12;98969.47;;;12.74;56.67
40574;BME280;26283;49.020;8.644;2023-03-18T08:14:37;98970.31;;;12.74;56.67
40574;BME280;26283;49.020;8.644;2023-03-18T08:17:03;98979.22;;;12.75;56.67
40574;BME280;26283;49.020;8.644;2023-03-18T08:19:29;98970.31;;;12.74;56.67
40574;BME280;26283;49.020;8.644;2023-03-18T08:21:54;98969.25;;;12.75;56.67
40574;BME280;26283;49.020;8.644;2023-03-18T08:24:20;98979.00;;;12.76;56.67
40574;BME280;26283;49.020;8.644;2023-03-18T08:26:46;98978.72;;;12.78;56.69
40574;BME280;26283;49.020;8.644;2023-03-18T08:29:11;98981.44;;;12.78;56.68
40574;BME280;26283;49.020;8.644;2023-03-18T08:31:36;98973.31;;;12.78;56.69
40574;BME280;26283;49.020;8.644;2023-03-18T08:34:02;98975.78;;;12.79;56.69
40574;BME280;26283;49.020;8.644;2023-03-18T08:36:28;98967.69;;;12.79;56.68
40574;BME280;26283;49.020;8.644;2023-03-18T08:38:53;98978.50;;;12.79;56.70
40574;BME280;26283;49.020;8.644;2023-03-18T08:41:19;98973.91;;;12.80;56.72
40574;BME280;26283;49.020;8.644;2023-03-18T08:43:44;98978.25;;;12.81;56.72
40574;BME280;26283;49.020;8.644;2023-03-18T08:46:11;98986.13;;;12.82;56.71
40574;BME280;26283;49.020;8.644;2023-03-18T08:48:36;98987.78;;;12.83;56.70
40574;BME280;26283;49.020;8.644;2023-03-18T08:51:05;98990.47;;;12.83;56.71
40574;BME280;26283;49.020;8.644;2023-03-18T08:53:35;98984.81;;;12.85;56.72
40574;BME280;26283;49.020;8.644;2023-03-18T08:56:02;98981.31;;;12.84;56.71
40574;BME280;26283;49.020;8.644;2023-03-18T08:58:28;98990.00;;;12.86;56.74
40574;BME280;26283;49.020;8.644;2023-03-18T09:00:54;98995.41;;;12.86;56.72
40574;BME280;26283;49.020;8.644;2023-03-18T09:03:20;98992.47;;;12.88;56.73
40574;BME280;26283;49.020;8.644;2023-03-18T09:05:48;98990.59;;;12.88;56.73
40574;BME280;26283;49.020;8.644;2023-03-18T09:08:14;98992.22;;;12.89;56.74
40574;BME280;26283;49.020;8.644;2023-03-18T09:10:39;98983.06;;;12.90;56.73
40574;BME280;26283;49.020;8.644;2023-03-18T09:13:05;98985.53;;;12.92;56.71
40574;BME280;26283;49.020;8.644;2023-03-18T09:15:32;98979.87;;;12.93;56.72
40574;BME280;26283;49.020;8.644;2023-03-18T09:17:58;98983.16;;;12.95;56.68
40574;BME280;26283;49.020;8.644;2023-03-18T09:20:24;98982.09;;;12.96;56.67
40574;BME280;26283;49.020;8.644;2023-03-18T09:22:50;98974.81;;;12.97;56.65
40574;BME280;26283;49.020;8.644;2023-03-18T09:25:17;98970.78;;;12.99;56.63
40574;BME280;26283;49.020;8.644;2023-03-18T09:27:42;98962.66;;;12.99;56.59
40574;BME280;26283;49.020;8.644;2023-03-18T09:30:10;98952.41;;;13.01;56.54
40574;BME280;26283;49.020;8.644;2023-03-18T09:32:36;98956.78;;;13.02;56.49
40574;BME280;26283;49.020;8.644;2023-03-18T09:35:02;98954.06;;;13.02;56.46
40574;BME280;26283;49.020;8.644;2023-03-18T09:37:27;98957.34;;;13.04;56.45
40574;BME280;26283;49.020;8.644;2023-03-18T09:39:53;98947.13;;;13.07;56.40
40574;BME280;26283;49.020;8.644;2023-03-18T09:42:35;98949.59;;;13.08;56.37
40574;BME280;26283;49.020;8.644;2023-03-18T09:46:09;98949.34;;;13.10;56.33
40574;BME280;26283;49.020;8.644;2023-03-18T09:56:20;98950.06;;;13.17;56.17
40574;BME280;26283;49.020;8.644;2023-03-18T10:01:33;98948.75;;;13.19;56.10
40574;BME280;26283;49.020;8.644;2023-03-18T10:04:08;98948.47;;;13.21;56.04
40574;BME280;26283;49.020;8.644;2023-03-18T10:06:37;98948.00;;;13.24;56.00
40574;BME280;26283;49.020;8.644;2023-03-18T10:09:27;98948.56;;;13.26;55.94
40574;BME280;26283;49.020;8.644;2023-03-18T10:12:16;98954.56;;;13.28;55.89
40574;BME280;26283;49.020;8.644;2023-03-18T10:14:48;98943.50;;;13.29;55.82
40574;BME280;26283;49.020;8.644;2023-03-18T10:17:29;98937.84;;;13.31;55.77
40574;BME280;26283;49.020;8.644;2023-03-18T10:19:57;98955.50;;;13.33;55.72
40574;BME280;26283;49.020;8.644;2023-03-18T10:25:19;98941.47;;;13.36;55.59
40574;BME280;26283;49.020;8.644;2023-03-18T10:31:04;98935.34;;;13.41;55.44
40574;BME280;26283;49.020;8.644;2023-03-18T10:36:23;98934.56;;;13.46;55.28
40574;BME280;26283;49.020;8.644;2023-03-18T10:38:52;98945.16;;;13.47;55.21
40574;BME280;26283;49.020;8.644;2023-03-18T10:43:49;98938.19;;;13.51;55.12
40574;BME280;26283;49.020;8.644;2023-03-18T10:46:18;98936.06;;;13.53;55.05
40574;BME280;26283;49.020;8.644;2023-03-18T10:48:47;98936.63;;;13.55;54.99
40574;BME280;26283;49.020;8.644;2023-03-18T10:51:34;98934.25;;;13.59;54.92
40574;BME280;26283;49.020;8.644;2023-03-18T10:54:39;98934.59;;;13.62;54.86
40574;BME280;26283;49.020;8.644;2023-03-18T10:57:07;98927.31;;;13.63;54.56
40574;BME280;26283;49.020;8.644;2023-03-18T10:59:37;98933.84;;;13.67;54.52
40574;BME280;26283;49.020;8.644;2023-03-18T11:02:16;98929.81;;;13.69;54.52
40574;BME280;26283;49.020;8.644;2023-03-18T11:04:58;98924.97;;;13.71;54.45
40574;BME280;26283;49.020;8.644;2023-03-18T11:07:27;98923.91;;;13.72;54.39
40574;BME280;26283;49.020;8.644;2023-03-18T11:09:53;98926.13;;;13.76;54.37
40574;BME280;26283;49.020;8.644;2023-03-18T11:12:25;98923.19;;;13.77;54.33
40574;BME280;26283;49.020;8.644;2023-03-18T11:14:51;98922.12;;;13.78;54.30
40574;BME280;26283;49.020;8.644;2023-03-18T11:17:31;98918.34;;;13.79;54.26
40574;BME280;26283;49.020;8.644;2023-03-18T11:20:36;98917.59;;;13.84;54.22
40574;BME280;26283;49.020;8.644;2023-03-18T11:23:18;98905.69;;;13.85;54.16
40574;BME280;26283;49.020;8.644;2023-03-18T11:26:00;98900.56;;;13.88;54.01
40574;BME280;26283;49.020;8.644;2023-03-18T11:28:28;98905.25;;;13.93;53.77
40574;BME280;26283;49.020;8.644;2023-03-18T11:30:55;98901.56;;;13.99;53.79
40574;BME280;26283;49.020;8.644;2023-03-18T11:33:29;98894.34;;;14.04;53.72
40574;BME280;26283;49.020;8.644;2023-03-18T11:35:59;98887.59;;;14.07;53.60
40574;BME280;26283;49.020;8.644;2023-03-18T11:38:30;98895.44;;;14.08;53.55
40574;BME280;26283;49.020;8.644;2023-03-18T11:41:15;98895.19;;;14.10;53.54
40574;BME280;26283;49.020;8.644;2023-03-18T11:44:05;98893.31;;;14.11;53.53
40574;BME280;26283;49.020;8.644;2023-03-18T11:46:34;98887.87;;;14.11;53.52
40574;BME280;26283;49.020;8.644;2023-03-18T11:49:02;98895.78;;;14.12;53.52
40574;BME280;26283;49.020;8.644;2023-03-18T11:51:43;98903.66;;;14.14;53.50
40574;BME280;26283;49.020;8.644;2023-03-18T11:56:56;98892.56;;;14.15;53.47
40574;BME280;26283;49.020;8.644;2023-03-18T12:04:48;98877.44;;;14.19;53.40
40574;BME280;26283;49.020;8.644;2023-03-18T12:15:46;98873.75;;;14.25;53.30
40574;BME280;26283;49.020;8.644;2023-03-18T12:24:52;98865.94;;;14.29;53.23
40574;BME280;26283;49.020;8.644;2023-03-18T12:27:52;98869.19;;;14.31;53.20
40574;BME280;26283;49.020;8.644;2023-03-18T12:43:42;98870.38;;;14.40;53.01
40574;BME280;26283;49.020;8.644;2023-03-18T12:46:32;98862.03;;;14.42;53.00
40574;BME280;26283;49.020;8.644;2023-03-18T12:49:10;98858.00;;;14.44;52.96
40574;BME280;26283;49.020;8.644;2023-03-18T12:54:17;98850.19;;;14.48;52.90
40574;BME280;26283;49.020;8.644;2023-03-18T12:56:45;98850.75;;;14.50;52.87
40574;BME280;26283;49.020;8.644;2023-03-18T12:59:25;98846.94;;;14.51;52.84
40574;BME280;26283;49.020;8.644;2023-03-18T13:02:23;98847.50;;;14.53;52.83
40574;BME280;26283;49.020;8.644;2023-03-18T13:04:53;98848.06;;;14.55;52.81
40574;BME280;26283;49.020;8.644;2023-03-18T13:07:28;98840.25;;;14.58;52.77
40574;BME280;26283;49.020;8.644;2023-03-18T13:10:05;98844.59;;;14.59;52.76
40574;BME280;26283;49.020;8.644;2023-03-18T13:12:37;98846.00;;;14.62;52.73
40574;BME280;26283;49.020;8.644;2023-03-18T13:15:25;98837.59;;;14.63;52.70
40574;BME280;26283;49.020;8.644;2023-03-18T13:17:56;98844.41;;;14.66;52.70
40574;BME280;26283;49.020;8.644;2023-03-18T13:20:33;98850.41;;;14.68;52.68
40574;BME280;26283;49.020;8.644;2023-03-18T13:23:27;98844.72;;;14.69;52.66
40574;BME280;26283;49.020;8.644;2023-03-18T13:28:59;98855.63;;;14.74;52.61
40574;BME280;26283;49.020;8.644;2023-03-18T13:37:33;98848.09;;;14.82;52.51
40574;BME280;26283;49.020;8.644;2023-03-18T16:12:17;98784.59;;;14.78;55.43
40574;BME280;26283;49.020;8.644;2023-03-18T16:14:45;98784.59;;;14.78;55.43
40574;BME280;26283;49.020;8.644;2023-03-18T16:17:15;98798.09;;;14.46;56.65
40574;BME280;26283;49.020;8.644;2023-03-18T16:19:42;98799.06;;;14.61;56.58
40574;BME280;26283;49.020;8.644;2023-03-18T16:22:10;98797.31;;;14.77;56.26
40574;BME280;26283;49.020;8.644;2023-03-18T16:24:36;98790.69;;;14.90;55.87
40574;BME280;26283;49.020;8.644;2023-03-18T16:27:03;98794.59;;;15.04;55.47
40574;BME280;26283;49.020;8.644;2023-03-18T16:29:32;98792.78;;;15.15;55.08
40574;BME280;26283;49.020;8.644;2023-03-18T16:31:58;98802.31;;;15.22;54.78
40574;BME280;26283;49.020;8.644;2023-03-18T16:34:24;98810.56;;;15.32;54.50
40574;BME280;26283;49.020;8.644;2023-03-18T16:36:50;98813.03;;;15.39;54.26
40574;BME280;26283;49.020;8.644;2023-03-18T16:39:24;98814.72;;;15.45;54.04
40574;BME280;26283;49.020;8.644;2023-03-18T16:41:51;98812.03;;;15.50;53.85
40574;BME280;26283;49.020;8.644;2023-03-18T16:44:19;98817.50;;;15.55;53.69
40574;BME280;26283;49.020;8.644;2023-03-18T16:46:47;98825.69;;;15.60;53.57
40574;BME280;26283;49.020;8.644;2023-03-18T16:49:22;98820.56;;;15.64;53.46
40574;BME280;26283;49.020;8.644;2023-03-18T16:51:48;98829.00;;;15.67;53.36
40574;BME280;26283;49.020;8.644;2023-03-18T16:54:22;98827.66;;;15.70;53.26
40574;BME280;26283;49.020;8.644;2023-03-18T16:56:51;98833.66;;;15.72;53.17